Time,TemperatureF,DewpointF,PressureIn,WindDirection,WindDirectionDegrees,WindSpeedMPH,WindSpeedGustMPH,Humidity,HourlyPrecipIn,Conditions,Clouds,dailyrainin,SoftwareType,DateUTC
2013-03-19 00:00:00,29.3,21.1,30.20,West,270,0.0,0.0,71,0.00,,,0.00,pywws,2013-03-19 04:00:00,
2013-03-19 00:01:00,29.1,21.2,30.19,North,0,0.0,0.0,72,0.00,,,0.00,pywws,2013-03-19 04:01:00,
2013-03-19 00:04:00,29.1,21.2,30.20,North,0,0.0,0.0,72,0.00,,,0.00,pywws,2013-03-19 04:04:00,
2013-03-19 00:07:00,28.8,21.2,30.19,North,0,0.0,0.0,73,0.00,,,0.00,pywws,2013-03-19 04:07:00,
2013-03-19 00:13:00,28.6,21.7,30.19,North,0,0.0,0.0,75,0.00,,,0.00,pywws,2013-03-19 04:13:00,
2013-03-19 00:19:00,28.2,20.0,30.19,NE,45,0.0,0.0,71,0.00,,,0.00,pywws,2013-03-19 04:19:00,
2013-03-19 00:24:00,28.4,21.8,30.19,SE,135,0.0,0.0,76,0.00,,,0.00,pywws,2013-03-19 04:24:00,
2013-03-19 00:30:00,28.2,20.4,30.18,North,0,0.0,0.0,72,0.00,,,0.00,pywws,2013-03-19 04:30:00,
2013-03-19 00:36:00,28.0,20.2,30.18,NW,315,0.0,0.0,72,0.00,,,0.00,pywws,2013-03-19 04:36:00,
2013-03-19 00:41:00,27.9,20.3,30.17,North,0,0.0,0.7,73,0.00,,,0.00,pywws,2013-03-19 04:41:00,
2013-03-19 00:47:00,27.9,20.3,30.16,NE,45,0.0,0.0,73,0.00,,,0.00,pywws,2013-03-19 04:47:00,
2013-03-19 00:52:00,27.9,20.7,30.15,NW,315,0.0,0.0,74,0.00,,,0.00,pywws,2013-03-19 04:52:00,
2013-03-19 00:58:00,27.9,20.7,30.15,North,0,0.0,0.0,74,0.00,,,0.00,pywws,2013-03-19 04:58:00,
2013-03-19 01:04:00,27.7,20.5,30.15,NE,45,0.0,0.0,74,0.00,,,0.00,pywws,2013-03-19 05:04:00,
2013-03-19 01:10:00,27.5,20.3,30.14,North,0,0.0,0.0,74,0.00,,,0.00,pywws,2013-03-19 05:10:00,
2013-03-19 01:16:00,27.7,20.8,30.14,East,90,0.0,0.0,75,0.00,,,0.00,pywws,2013-03-19 05:16:00,
2013-03-19 01:21:00,27.5,20.6,30.14,East,90,0.0,0.0,75,0.00,,,0.00,pywws,2013-03-19 05:21:00,
2013-03-19 01:27:00,27.5,20.6,30.13,SE,135,0.0,0.0,75,0.00,,,0.00,pywws,2013-03-19 05:27:00,
2013-03-19 01:32:00,27.5,20.6,30.13,East,90,0.0,0.0,75,0.00,,,0.00,pywws,2013-03-19 05:32:00,
2013-03-19 01:38:00,27.5,20.6,30.12,North,0,0.0,0.0,75,0.00,,,0.00,pywws,2013-03-19 05:38:00,
2013-03-19 01:44:00,27.5,20.6,30.12,East,90,0.0,0.0,75,0.00,,,0.00,pywws,2013-03-19 05:44:00,
2013-03-19 01:49:00,27.5,20.6,30.11,East,90,0.0,0.0,75,0.00,,,0.00,pywws,2013-03-19 05:49:00,
2013-03-19 01:56:00,27.5,20.6,30.11,SE,135,0.0,0.7,75,0.00,,,0.00,pywws,2013-03-19 05:56:00,
2013-03-19 02:02:00,27.5,20.6,30.10,North,0,0.0,0.0,75,0.00,,,0.00,pywws,2013-03-19 06:02:00,
2013-03-19 02:08:00,27.3,20.5,30.10,North,0,0.0,0.0,75,0.00,,,0.00,pywws,2013-03-19 06:08:00,
2013-03-19 02:13:00,27.3,20.5,30.10,East,90,0.0,0.0,75,0.00,,,0.00,pywws,2013-03-19 06:13:00,
2013-03-19 02:19:00,27.5,20.6,30.10,NW,315,0.0,0.0,75,0.00,,,0.00,pywws,2013-03-19 06:19:00,
2013-03-19 02:24:00,27.5,20.6,30.10,East,90,0.0,0.0,75,0.00,,,0.00,pywws,2013-03-19 06:24:00,
2013-03-19 02:30:00,27.3,20.5,30.09,North,0,0.0,0.0,75,0.00,,,0.00,pywws,2013-03-19 06:30:00,
2013-03-19 02:36:00,27.3,20.5,30.08,North,0,0.0,0.0,75,0.00,,,0.00,pywws,2013-03-19 06:36:00,
2013-03-19 02:41:00,27.5,20.9,30.08,NE,45,0.0,0.0,76,0.00,,,0.00,pywws,2013-03-19 06:41:00,
2013-03-19 02:47:00,27.5,20.9,30.08,North,0,0.0,0.7,76,0.00,,,0.00,pywws,2013-03-19 06:47:00,
2013-03-19 02:52:00,27.5,20.9,30.07,North,0,0.0,0.0,76,0.00,,,0.00,pywws,2013-03-19 06:52:00,
2013-03-19 02:58:00,27.7,21.1,30.07,NE,45,0.0,0.0,76,0.00,,,0.00,pywws,2013-03-19 06:58:00,
2013-03-19 03:04:00,27.7,21.1,30.07,East,90,0.0,0.0,76,0.00,,,0.00,pywws,2013-03-19 07:04:00,
2013-03-19 03:09:00,27.7,21.1,30.07,East,90,0.0,0.0,76,0.00,,,0.00,pywws,2013-03-19 07:09:00,
2013-03-19 03:15:00,27.7,21.1,30.06,North,0,0.0,0.0,76,0.00,,,0.00,pywws,2013-03-19 07:15:00,
2013-03-19 03:20:00,27.7,21.1,30.06,North,0,0.0,0.0,76,0.00,,,0.00,pywws,2013-03-19 07:20:00,
2013-03-19 03:26:00,27.7,21.1,30.06,North,0,0.0,0.0,76,0.00,,,0.00,pywws,2013-03-19 07:26:00,
2013-03-19 03:32:00,27.7,21.1,30.06,North,0,0.0,0.0,76,0.00,,,0.00,pywws,2013-03-19 07:32:00,
2013-03-19 03:38:00,27.7,21.1,30.06,East,90,0.0,0.0,76,0.00,,,0.00,pywws,2013-03-19 07:38:00,
2013-03-19 03:44:00,27.7,21.1,30.06,North,0,0.0,0.0,76,0.00,,,0.00,pywws,2013-03-19 07:44:00,
2013-03-19 03:50:00,27.9,21.3,30.05,East,90,0.0,0.0,76,0.00,,,0.00,pywws,2013-03-19 07:50:00,
2013-03-19 03:56:00,27.7,21.1,30.04,North,0,0.0,0.0,76,0.00,,,0.00,pywws,2013-03-19 07:56:00,
2013-03-19 04:01:00,27.9,21.3,30.04,North,0,0.0,0.0,76,0.00,,,0.00,pywws,2013-03-19 08:01:00,
2013-03-19 04:07:00,27.7,21.1,30.04,North,0,0.0,2.2,76,0.00,,,0.00,pywws,2013-03-19 08:07:00,
2013-03-19 04:14:00,27.7,21.1,30.03,SE,135,0.0,0.0,76,0.00,,,0.00,pywws,2013-03-19 08:14:00,
2013-03-19 04:20:00,27.7,21.1,30.03,North,0,0.0,0.0,76,0.00,,,0.00,pywws,2013-03-19 08:20:00,
2013-03-19 04:26:00,27.7,21.1,30.03,North,0,0.0,0.0,76,0.00,,,0.00,pywws,2013-03-19 08:26:00,
2013-03-19 04:32:00,27.7,21.1,30.02,North,0,0.0,0.0,76,0.00,,,0.00,pywws,2013-03-19 08:32:00,
2013-03-19 04:37:00,27.9,21.3,30.03,East,90,0.0,0.0,76,0.00,,,0.00,pywws,2013-03-19 08:37:00,
2013-03-19 04:44:00,27.9,21.3,30.03,North,0,0.0,0.0,76,0.00,,,0.00,pywws,2013-03-19 08:44:00,
2013-03-19 04:50:00,27.9,21.6,30.03,East,90,0.0,0.0,77,0.00,,,0.00,pywws,2013-03-19 08:50:00,
2013-03-19 04:56:00,27.9,21.3,30.03,North,0,0.0,0.7,76,0.00,,,0.00,pywws,2013-03-19 08:56:00,
2013-03-19 05:01:00,28.0,21.5,30.03,East,90,0.0,0.0,76,0.00,,,0.00,pywws,2013-03-19 09:01:00,
2013-03-19 05:07:00,28.2,21.6,30.02,NW,315,0.0,0.0,76,0.00,,,0.00,pywws,2013-03-19 09:07:00,
2013-03-19 05:14:00,28.4,23.0,30.02,East,90,0.0,0.0,80,0.00,,,0.00,pywws,2013-03-19 09:14:00,
2013-03-19 05:21:00,28.4,23.0,30.02,East,90,0.0,0.0,80,0.00,,,0.00,pywws,2013-03-19 09:21:00,
2013-03-19 05:27:00,28.6,23.2,30.02,NE,45,0.0,0.0,80,0.00,,,0.00,pywws,2013-03-19 09:27:00,
2013-03-19 05:32:00,28.6,23.2,30.01,West,270,0.0,0.0,80,0.00,,,0.00,pywws,2013-03-19 09:32:00,
2013-03-19 05:38:00,28.8,23.4,30.01,East,90,0.0,0.0,80,0.00,,,0.00,pywws,2013-03-19 09:38:00,
2013-03-19 05:44:00,28.8,23.4,30.01,East,90,0.0,0.7,80,0.00,,,0.00,pywws,2013-03-19 09:44:00,
2013-03-19 05:49:00,28.9,23.6,30.00,East,90,0.0,0.0,80,0.00,,,0.00,pywws,2013-03-19 09:49:00,
2013-03-19 05:55:00,29.1,23.7,29.99,North,0,0.0,0.7,80,0.00,,,0.00,pywws,2013-03-19 09:55:00,
2013-03-19 06:00:00,29.1,23.7,30.00,North,0,0.0,0.7,80,0.00,,,0.00,pywws,2013-03-19 10:00:00,
2013-03-19 06:06:00,29.1,23.7,29.99,East,90,0.0,0.0,80,0.00,,,0.00,pywws,2013-03-19 10:06:00,
2013-03-19 06:12:00,29.3,23.9,29.99,North,0,1.6,7.6,80,0.00,,,0.00,pywws,2013-03-19 10:12:00,
2013-03-19 06:17:00,29.5,24.1,29.98,NE,45,0.0,3.1,80,0.00,,,0.00,pywws,2013-03-19 10:17:00,
2013-03-19 06:23:00,29.7,24.3,29.98,South,180,0.0,0.0,80,0.00,,,0.00,pywws,2013-03-19 10:23:00,
2013-03-19 06:28:00,29.7,24.6,29.98,North,0,0.0,0.0,81,0.00,,,0.00,pywws,2013-03-19 10:28:00,
2013-03-19 06:34:00,29.8,24.7,29.98,North,0,0.0,0.0,81,0.00,,,0.00,pywws,2013-03-19 10:34:00,
2013-03-19 06:40:00,30.0,24.9,29.98,East,90,1.6,7.6,81,0.00,,,0.00,pywws,2013-03-19 10:40:00,
2013-03-19 06:46:00,30.0,24.9,29.98,East,90,0.7,2.2,81,0.00,,,0.00,pywws,2013-03-19 10:46:00,
2013-03-19 06:52:00,30.0,24.9,29.98,North,0,0.0,0.0,81,0.00,,,0.00,pywws,2013-03-19 10:52:00,
2013-03-19 06:58:00,30.0,24.9,29.98,East,90,0.0,0.0,81,0.00,,,0.00,pywws,2013-03-19 10:58:00,
2013-03-19 07:04:00,30.2,24.8,29.97,North,0,0.0,0.0,80,0.00,,,0.00,pywws,2013-03-19 11:04:00,
2013-03-19 07:10:00,30.2,24.8,29.97,North,0,0.0,0.0,80,0.00,,,0.00,pywws,2013-03-19 11:10:00,
2013-03-19 07:16:00,30.2,24.8,29.96,SE,135,0.7,4.5,80,0.00,,,0.00,pywws,2013-03-19 11:16:00,
2013-03-19 07:22:00,30.4,25.0,29.96,SE,135,0.0,0.0,80,0.00,,,0.00,pywws,2013-03-19 11:22:00,
2013-03-19 07:28:00,30.6,25.1,29.96,East,90,0.0,0.7,80,0.00,,,0.00,pywws,2013-03-19 11:28:00,
2013-03-19 07:34:00,30.6,25.1,29.96,North,0,3.1,9.2,80,0.00,,,0.00,pywws,2013-03-19 11:34:00,
2013-03-19 07:40:00,30.7,25.3,29.96,North,0,0.0,3.1,80,0.00,,,0.00,pywws,2013-03-19 11:40:00,
2013-03-19 07:46:00,30.9,25.2,29.95,North,0,0.0,0.7,79,0.00,,,0.00,pywws,2013-03-19 11:46:00,
2013-03-19 07:52:00,31.3,25.5,29.95,East,90,0.0,0.0,79,0.00,,,0.00,pywws,2013-03-19 11:52:00,
2013-03-19 07:57:00,31.3,25.5,29.94,SE,135,0.0,0.0,79,0.00,,,0.00,pywws,2013-03-19 11:57:00,
2013-03-19 08:03:00,31.5,25.7,29.94,North,0,0.0,0.0,79,0.00,,,0.00,pywws,2013-03-19 12:03:00,
2013-03-19 08:08:00,31.5,25.7,29.93,North,0,0.0,2.2,79,0.00,,,0.00,pywws,2013-03-19 12:08:00,
2013-03-19 08:14:00,31.6,25.9,29.93,North,0,0.0,0.0,79,0.00,,,0.00,pywws,2013-03-19 12:14:00,
2013-03-19 08:20:00,31.8,26.1,29.93,SE,135,0.0,2.2,79,0.00,,,0.00,pywws,2013-03-19 12:20:00,
2013-03-19 08:26:00,31.8,26.1,29.93,NE,45,0.0,1.6,79,0.00,,,0.00,pywws,2013-03-19 12:26:00,
2013-03-19 08:32:00,31.8,26.4,29.92,East,90,0.0,2.2,80,0.00,,,0.00,pywws,2013-03-19 12:32:00,
2013-03-19 08:37:00,31.8,26.4,29.92,North,0,0.0,2.2,80,0.00,,,0.00,pywws,2013-03-19 12:37:00,
2013-03-19 08:43:00,32.0,25.9,29.92,NE,45,0.0,0.0,78,0.00,,,0.00,pywws,2013-03-19 12:43:00,
2013-03-19 08:48:00,32.0,25.9,29.91,North,0,0.0,0.7,78,0.00,,,0.00,pywws,2013-03-19 12:48:00,
2013-03-19 08:54:00,32.0,26.2,29.91,South,180,0.0,0.0,79,0.00,,,0.00,pywws,2013-03-19 12:54:00,
2013-03-19 09:00:00,32.0,26.2,29.91,East,90,0.0,0.0,79,0.00,,,0.00,pywws,2013-03-19 13:00:00,
2013-03-19 09:05:00,32.2,26.4,29.90,North,0,0.0,0.0,79,0.00,,,0.00,pywws,2013-03-19 13:05:00,
2013-03-19 09:11:00,32.2,26.4,29.90,NE,45,0.0,0.0,79,0.00,,,0.00,pywws,2013-03-19 13:11:00,
2013-03-19 09:16:00,32.4,26.6,29.90,North,0,0.0,0.7,79,0.00,,,0.00,pywws,2013-03-19 13:16:00,
2013-03-19 09:22:00,32.4,26.6,29.90,NE,45,0.0,2.2,79,0.00,,,0.00,pywws,2013-03-19 13:22:00,
2013-03-19 09:28:00,32.2,26.4,29.89,South,180,0.0,0.0,79,0.00,,,0.00,pywws,2013-03-19 13:28:00,
2013-03-19 09:35:00,32.4,26.6,29.88,NW,315,0.0,0.0,79,0.00,,,0.00,pywws,2013-03-19 13:35:00,
2013-03-19 09:40:00,32.5,26.8,29.88,North,0,0.0,0.7,79,0.00,,,0.00,pywws,2013-03-19 13:40:00,
2013-03-19 09:46:00,32.9,27.1,29.88,SE,135,0.0,0.0,79,0.00,,,0.00,pywws,2013-03-19 13:46:00,
2013-03-19 09:52:00,32.7,26.9,29.88,North,0,0.0,0.0,79,0.00,,,0.00,pywws,2013-03-19 13:52:00,
2013-03-19 09:57:00,32.7,26.9,29.88,North,0,0.0,0.0,79,0.00,,,0.00,pywws,2013-03-19 13:57:00,
2013-03-19 10:03:00,32.5,26.8,29.88,NE,45,0.0,0.0,79,0.00,,,0.00,pywws,2013-03-19 14:03:00,
2013-03-19 10:11:00,32.7,26.9,29.87,East,90,0.0,1.6,79,0.00,,,0.00,pywws,2013-03-19 14:11:00,
2013-03-19 10:16:00,32.9,27.1,29.87,East,90,0.0,0.0,79,0.00,,,0.00,pywws,2013-03-19 14:16:00,
2013-03-19 10:22:00,32.9,27.1,29.86,NE,45,0.0,0.0,79,0.00,,,0.00,pywws,2013-03-19 14:22:00,
2013-03-19 10:28:00,32.9,27.4,29.86,East,90,0.0,0.0,80,0.00,,,0.00,pywws,2013-03-19 14:28:00,
2013-03-19 10:33:00,33.1,27.6,29.85,SE,135,0.0,0.0,80,0.00,,,0.00,pywws,2013-03-19 14:33:00,
2013-03-19 10:39:00,33.1,27.6,29.85,West,270,0.0,0.7,80,0.00,,,0.00,pywws,2013-03-19 14:39:00,
2013-03-19 10:44:00,32.9,27.4,29.85,East,90,0.7,3.8,80,0.00,,,0.00,pywws,2013-03-19 14:44:00,
2013-03-19 10:50:00,33.1,27.6,29.85,East,90,0.7,2.2,80,0.00,,,0.00,pywws,2013-03-19 14:50:00,
2013-03-19 10:56:00,33.3,27.8,29.84,NE,45,0.0,0.7,80,0.00,,,0.00,pywws,2013-03-19 14:56:00,
2013-03-19 11:01:00,33.1,27.6,29.84,East,90,0.0,1.6,80,0.00,,,0.00,pywws,2013-03-19 15:01:00,
2013-03-19 11:07:00,33.3,27.8,29.84,East,90,0.0,0.7,80,0.00,,,0.00,pywws,2013-03-19 15:07:00,
2013-03-19 11:12:00,33.1,27.6,29.84,East,90,0.0,0.7,80,0.00,,,0.00,pywws,2013-03-19 15:12:00,
2013-03-19 11:18:00,33.4,27.9,29.84,East,90,0.0,0.0,80,0.00,,,0.00,pywws,2013-03-19 15:18:00,
2013-03-19 11:24:00,33.3,27.8,29.82,NE,45,0.0,0.0,80,0.00,,,0.00,pywws,2013-03-19 15:24:00,
2013-03-19 11:30:00,33.4,27.9,29.81,North,0,0.0,0.0,80,0.00,,,0.00,pywws,2013-03-19 15:30:00,
2013-03-19 11:36:00,33.8,28.0,29.81,North,0,0.0,0.7,79,0.00,,,0.00,pywws,2013-03-19 15:36:00,
2013-03-19 11:42:00,34.0,28.2,29.80,North,0,0.0,0.0,79,0.00,,,0.00,pywws,2013-03-19 15:42:00,
2013-03-19 11:48:00,33.8,28.0,29.80,North,0,0.0,2.2,79,0.00,,,0.00,pywws,2013-03-19 15:48:00,
2013-03-19 11:53:00,34.0,28.2,29.80,North,0,0.0,3.8,79,0.00,,,0.00,pywws,2013-03-19 15:53:00,
2013-03-19 11:59:00,34.0,28.2,29.79,NE,45,0.0,1.6,79,0.00,,,0.00,pywws,2013-03-19 15:59:00,
2013-03-19 12:04:00,34.2,28.3,29.79,North,0,0.0,0.0,79,0.00,,,0.00,pywws,2013-03-19 16:04:00,
2013-03-19 12:10:00,34.0,28.2,29.79,North,0,0.0,0.0,79,0.00,,,0.00,pywws,2013-03-19 16:10:00,
2013-03-19 12:16:00,34.2,28.3,29.78,North,0,0.0,0.0,79,0.00,,,0.00,pywws,2013-03-19 16:16:00,
2013-03-19 12:21:00,34.3,28.5,29.78,South,180,0.0,0.0,79,0.00,,,0.00,pywws,2013-03-19 16:21:00,
2013-03-19 12:27:00,34.3,28.5,29.78,NE,45,0.0,0.7,79,0.00,,,0.00,pywws,2013-03-19 16:27:00,
2013-03-19 12:32:00,34.5,28.7,29.78,NW,315,0.0,3.1,79,0.00,,,0.00,pywws,2013-03-19 16:32:00,
2013-03-19 12:38:00,34.3,28.5,29.77,North,0,0.0,0.0,79,0.00,,,0.00,pywws,2013-03-19 16:38:00,
2013-03-19 12:44:00,34.3,28.5,29.77,North,0,0.0,5.4,79,0.00,,,0.00,pywws,2013-03-19 16:44:00,
2013-03-19 12:49:00,34.5,28.7,29.75,North,0,0.0,0.0,79,0.00,,,0.00,pywws,2013-03-19 16:49:00,
2013-03-19 12:55:00,34.5,28.7,29.75,North,0,0.0,0.0,79,0.00,,,0.00,pywws,2013-03-19 16:55:00,
2013-03-19 13:00:00,34.3,28.5,29.74,North,0,0.0,0.0,79,0.00,,,0.00,pywws,2013-03-19 17:00:00,
2013-03-19 13:06:00,34.3,28.5,29.74,North,0,0.0,0.7,79,0.00,,,0.00,pywws,2013-03-19 17:06:00,
2013-03-19 13:12:00,34.7,29.2,29.74,East,90,0.0,0.0,80,0.00,,,0.00,pywws,2013-03-19 17:12:00,
2013-03-19 13:17:00,34.5,28.7,29.74,North,0,0.0,0.0,79,0.00,,,0.00,pywws,2013-03-19 17:17:00,
2013-03-19 13:23:00,34.3,28.8,29.73,SE,135,0.0,4.5,80,0.01,,,0.01,pywws,2013-03-19 17:23:00,
2013-03-19 13:28:00,34.2,28.6,29.72,North,0,0.0,0.0,80,0.02,,,0.02,pywws,2013-03-19 17:28:00,
2013-03-19 13:34:00,34.2,28.6,29.72,NE,45,0.0,0.0,80,0.02,,,0.02,pywws,2013-03-19 17:34:00,
2013-03-19 13:40:00,34.2,28.6,29.72,North,0,0.0,0.0,80,0.04,,,0.04,pywws,2013-03-19 17:40:00,
2013-03-19 13:45:00,34.2,28.6,29.71,North,0,0.7,4.5,80,0.05,,,0.05,pywws,2013-03-19 17:45:00,
2013-03-19 13:51:00,34.2,28.6,29.71,NE,45,0.0,0.7,80,0.06,,,0.06,pywws,2013-03-19 17:51:00,
2013-03-19 13:56:00,34.3,28.8,29.70,SE,135,0.0,0.0,80,0.09,,,0.09,pywws,2013-03-19 17:56:00,
2013-03-19 14:02:00,34.3,28.8,29.71,North,0,0.0,0.0,80,0.11,,,0.11,pywws,2013-03-19 18:02:00,
2013-03-19 14:08:00,34.2,28.6,29.73,NW,315,0.0,0.0,80,0.12,,,0.12,pywws,2013-03-19 18:08:00,
2013-03-19 14:13:00,34.2,28.6,29.76,NW,315,0.0,0.0,80,0.13,,,0.13,pywws,2013-03-19 18:13:00,
2013-03-19 14:19:00,33.8,28.3,29.75,West,270,0.0,0.0,80,0.14,,,0.14,pywws,2013-03-19 18:19:00,
2013-03-19 14:24:00,33.6,28.4,29.76,North,0,0.0,0.0,81,0.13,,,0.14,pywws,2013-03-19 18:24:00,
2013-03-19 14:30:00,33.3,28.1,29.73,NE,45,0.0,0.0,81,0.12,,,0.14,pywws,2013-03-19 18:30:00,
2013-03-19 14:36:00,33.3,28.1,29.73,NW,315,0.0,0.0,81,0.12,,,0.14,pywws,2013-03-19 18:36:00,
2013-03-19 14:41:00,32.9,27.7,29.73,North,0,0.7,2.2,81,0.11,,,0.14,pywws,2013-03-19 18:41:00,
2013-03-19 14:47:00,32.9,27.7,29.73,North,0,0.0,0.0,81,0.09,,,0.14,pywws,2013-03-19 18:47:00,
2013-03-19 14:52:00,32.7,27.5,29.72,SE,135,0.0,1.6,81,0.07,,,0.14,pywws,2013-03-19 18:52:00,
2013-03-19 14:58:00,32.5,27.4,29.72,North,0,0.0,0.0,81,0.05,,,0.14,pywws,2013-03-19 18:58:00,
2013-03-19 15:04:00,32.5,27.4,29.72,NE,45,0.0,0.0,81,0.02,,,0.14,pywws,2013-03-19 19:04:00,
2013-03-19 15:09:00,32.5,27.4,29.72,NE,45,0.0,0.0,81,0.02,,,0.14,pywws,2013-03-19 19:09:00,
2013-03-19 15:15:00,32.5,27.4,29.73,NE,45,0.0,0.7,81,0.01,,,0.14,pywws,2013-03-19 19:15:00,
2013-03-19 15:20:00,32.5,27.4,29.72,East,90,0.0,0.0,81,0.00,,,0.14,pywws,2013-03-19 19:20:00,
2013-03-19 15:26:00,32.5,27.4,29.69,North,0,0.0,0.0,81,0.00,,,0.14,pywws,2013-03-19 19:26:00,
2013-03-19 15:31:00,32.4,27.2,29.66,North,0,0.0,0.0,81,0.00,,,0.14,pywws,2013-03-19 19:31:00,
2013-03-19 15:36:00,32.5,27.4,29.64,North,0,0.7,2.2,81,0.00,,,0.14,pywws,2013-03-19 19:36:00,
2013-03-19 15:42:00,33.1,27.9,29.64,NW,315,0.0,0.7,81,0.00,,,0.14,pywws,2013-03-19 19:42:00,
2013-03-19 15:48:00,33.1,27.6,29.66,NE,45,0.7,3.8,80,0.00,,,0.14,pywws,2013-03-19 19:48:00,
2013-03-19 15:53:00,34.2,28.3,29.66,NE,45,0.0,0.0,79,0.00,,,0.14,pywws,2013-03-19 19:53:00,
2013-03-19 15:59:00,34.0,28.2,29.65,SE,135,0.0,0.7,79,0.00,,,0.14,pywws,2013-03-19 19:59:00,
2013-03-19 16:04:00,34.3,28.5,29.65,East,90,0.0,0.0,79,0.01,,,0.15,pywws,2013-03-19 20:04:00,
2013-03-19 16:10:00,34.0,27.9,29.65,NE,45,1.6,6.0,78,0.02,,,0.17,pywws,2013-03-19 20:10:00,
2013-03-19 16:16:00,33.8,27.7,29.64,SE,135,0.0,0.7,78,0.04,,,0.18,pywws,2013-03-19 20:16:00,
2013-03-19 16:22:00,34.2,28.3,29.63,North,0,0.0,0.0,79,0.04,,,0.18,pywws,2013-03-19 20:22:00,
2013-03-19 16:27:00,34.0,28.2,29.63,NE,45,0.7,4.5,79,0.05,,,0.19,pywws,2013-03-19 20:27:00,
2013-03-19 16:32:00,33.8,28.0,29.63,NE,45,0.0,2.2,79,0.05,,,0.19,pywws,2013-03-19 20:32:00,
2013-03-19 16:39:00,33.4,27.9,29.63,North,0,0.7,2.2,80,0.06,,,0.20,pywws,2013-03-19 20:39:00,
2013-03-19 16:44:00,33.6,28.1,29.63,NW,315,0.0,1.6,80,0.06,,,0.20,pywws,2013-03-19 20:44:00,
2013-03-19 16:50:00,33.6,28.1,29.63,East,90,0.0,1.6,80,0.07,,,0.21,pywws,2013-03-19 20:50:00,
2013-03-19 16:56:00,33.6,28.1,29.62,North,0,0.0,0.0,80,0.07,,,0.21,pywws,2013-03-19 20:56:00,
2013-03-19 17:01:00,33.6,28.1,29.63,North,0,2.2,7.6,80,0.07,,,0.21,pywws,2013-03-19 21:01:00,
2013-03-19 17:07:00,33.6,28.1,29.64,North,0,0.0,0.0,80,0.07,,,0.22,pywws,2013-03-19 21:07:00,
2013-03-19 17:12:00,33.4,27.9,29.64,East,90,0.0,0.0,80,0.06,,,0.22,pywws,2013-03-19 21:12:00,
2013-03-19 17:18:00,33.4,27.9,29.63,NE,45,0.0,0.0,80,0.06,,,0.24,pywws,2013-03-19 21:18:00,
2013-03-19 17:24:00,33.3,27.8,29.63,North,0,0.0,1.6,80,0.05,,,0.24,pywws,2013-03-19 21:24:00,
2013-03-19 17:30:00,33.3,27.8,29.64,North,0,0.0,0.0,80,0.05,,,0.24,pywws,2013-03-19 21:30:00,
2013-03-19 17:36:00,33.3,27.8,29.64,North,0,0.0,0.0,80,0.05,,,0.24,pywws,2013-03-19 21:36:00,
2013-03-19 17:41:00,33.1,27.6,29.64,North,0,0.0,0.0,80,0.04,,,0.24,pywws,2013-03-19 21:41:00,
2013-03-19 17:47:00,33.1,27.6,29.64,NE,45,0.0,0.0,80,0.02,,,0.24,pywws,2013-03-19 21:47:00,
2013-03-19 17:52:00,33.1,27.6,29.63,SE,135,0.0,0.0,80,0.04,,,0.25,pywws,2013-03-19 21:52:00,
2013-03-19 17:58:00,32.9,27.4,29.64,East,90,0.0,3.8,80,0.04,,,0.25,pywws,2013-03-19 21:58:00,
2013-03-19 18:04:00,32.9,27.4,29.64,NE,45,0.0,0.0,80,0.02,,,0.25,pywws,2013-03-19 22:04:00,
2013-03-19 18:09:00,32.7,27.2,29.64,NW,315,0.0,0.7,80,0.02,,,0.25,pywws,2013-03-19 22:09:00,
2013-03-19 18:15:00,32.7,27.2,29.65,NW,315,0.0,0.0,80,0.02,,,0.25,pywws,2013-03-19 22:15:00,
2013-03-19 18:20:00,32.5,27.1,29.64,North,0,0.0,0.0,80,0.02,,,0.26,pywws,2013-03-19 22:20:00,
2013-03-19 18:26:00,32.5,27.1,29.64,North,0,0.0,0.0,80,0.02,,,0.26,pywws,2013-03-19 22:26:00,
2013-03-19 18:31:00,32.4,26.9,29.65,North,0,0.0,0.0,80,0.02,,,0.26,pywws,2013-03-19 22:31:00,
2013-03-19 18:36:00,32.2,27.0,29.65,North,0,0.0,0.0,81,0.02,,,0.26,pywws,2013-03-19 22:36:00,
2013-03-19 18:42:00,32.2,27.0,29.65,East,90,0.0,0.0,81,0.02,,,0.26,pywws,2013-03-19 22:42:00,
2013-03-19 18:48:00,32.2,27.0,29.65,West,270,0.0,0.7,81,0.02,,,0.26,pywws,2013-03-19 22:48:00,
2013-03-19 18:53:00,32.2,27.0,29.65,NW,315,0.0,0.0,81,0.01,,,0.26,pywws,2013-03-19 22:53:00,
2013-03-19 18:59:00,32.0,26.8,29.65,NW,315,0.0,0.0,81,0.01,,,0.26,pywws,2013-03-19 22:59:00,
2013-03-19 19:04:00,32.0,26.8,29.65,North,0,0.0,0.7,81,0.01,,,0.26,pywws,2013-03-19 23:04:00,
2013-03-19 19:10:00,32.0,26.8,29.66,North,0,0.0,0.0,81,0.01,,,0.26,pywws,2013-03-19 23:10:00,
2013-03-19 19:16:00,32.0,26.8,29.65,NE,45,0.0,0.0,81,0.01,,,0.26,pywws,2013-03-19 23:16:00,
2013-03-19 19:21:00,32.0,26.8,29.65,NW,315,0.0,0.0,81,0.00,,,0.26,pywws,2013-03-19 23:21:00,
2013-03-19 19:27:00,32.0,26.8,29.65,West,270,0.0,0.0,81,0.00,,,0.26,pywws,2013-03-19 23:27:00,
2013-03-19 19:32:00,32.0,26.8,29.66,NW,315,0.0,0.7,81,0.00,,,0.26,pywws,2013-03-19 23:32:00,
2013-03-19 19:39:00,32.0,26.8,29.65,NW,315,0.0,0.0,81,0.00,,,0.26,pywws,2013-03-19 23:39:00,
2013-03-19 19:44:00,31.8,27.0,29.65,NW,315,0.0,2.2,82,0.00,,,0.26,pywws,2013-03-19 23:44:00,
2013-03-19 19:50:00,31.8,27.0,29.66,NW,315,0.0,0.0,82,0.00,,,0.26,pywws,2013-03-19 23:50:00,
2013-03-19 19:56:00,31.8,27.0,29.66,SE,135,0.0,0.7,82,0.00,,,0.26,pywws,2013-03-19 23:56:00,
2013-03-19 20:01:00,31.8,27.0,29.66,West,270,0.0,2.2,82,0.00,,,0.26,pywws,2013-03-20 00:01:00,
2013-03-19 20:07:00,31.6,26.8,29.65,NW,315,0.0,0.0,82,0.00,,,0.26,pywws,2013-03-20 00:07:00,
2013-03-19 20:12:00,31.6,26.8,29.66,NW,315,0.0,0.0,82,0.00,,,0.26,pywws,2013-03-20 00:12:00,
2013-03-19 20:18:00,31.6,26.8,29.67,NW,315,0.0,0.0,82,0.00,,,0.26,pywws,2013-03-20 00:18:00,
2013-03-19 20:24:00,31.6,26.8,29.67,West,270,0.0,0.0,82,0.00,,,0.26,pywws,2013-03-20 00:24:00,
2013-03-19 20:29:00,31.5,26.6,29.67,West,270,0.0,0.0,82,0.00,,,0.26,pywws,2013-03-20 00:29:00,
2013-03-19 20:35:00,31.5,26.6,29.68,NW,315,0.0,0.0,82,0.00,,,0.26,pywws,2013-03-20 00:35:00,
2013-03-19 20:40:00,31.5,26.6,29.68,NW,315,0.0,0.0,82,0.00,,,0.26,pywws,2013-03-20 00:40:00,
2013-03-19 20:47:00,31.3,26.4,29.69,North,0,0.0,0.0,82,0.00,,,0.26,pywws,2013-03-20 00:47:00,
2013-03-19 20:52:00,31.3,26.4,29.69,NW,315,0.0,0.0,82,0.00,,,0.26,pywws,2013-03-20 00:52:00,
2013-03-19 20:58:00,31.3,26.4,29.70,West,270,0.0,0.0,82,0.00,,,0.26,pywws,2013-03-20 00:58:00,
2013-03-19 21:04:00,31.1,26.3,29.70,West,270,0.0,0.7,82,0.00,,,0.26,pywws,2013-03-20 01:04:00,
2013-03-19 21:10:00,31.3,26.4,29.70,NW,315,0.0,0.0,82,0.00,,,0.26,pywws,2013-03-20 01:10:00,
2013-03-19 21:16:00,31.3,26.1,29.70,NW,315,0.0,0.0,81,0.00,,,0.26,pywws,2013-03-20 01:16:00,
2013-03-19 21:21:00,31.3,26.1,29.70,NW,315,0.0,1.6,81,0.00,,,0.26,pywws,2013-03-20 01:21:00,
2013-03-19 21:28:00,31.3,26.1,29.71,NW,315,0.0,0.7,81,0.00,,,0.26,pywws,2013-03-20 01:28:00,
2013-03-19 21:33:00,31.3,25.8,29.71,North,0,0.0,0.7,80,0.00,,,0.26,pywws,2013-03-20 01:33:00,
2013-03-19 21:39:00,31.1,25.7,29.71,NW,315,0.0,0.7,80,0.00,,,0.26,pywws,2013-03-20 01:39:00,
2013-03-19 21:44:00,30.9,25.5,29.70,West,270,0.0,0.0,80,0.00,,,0.26,pywws,2013-03-20 01:44:00,
2013-03-19 21:50:00,30.7,25.3,29.70,North,0,0.0,0.0,80,0.00,,,0.26,pywws,2013-03-20 01:50:00,
2013-03-19 21:56:00,30.6,25.1,29.70,NE,45,0.0,0.0,80,0.00,,,0.26,pywws,2013-03-20 01:56:00,
2013-03-19 22:01:00,30.4,25.0,29.70,West,270,0.0,0.0,80,0.00,,,0.26,pywws,2013-03-20 02:01:00,
2013-03-19 22:08:00,30.2,24.8,29.70,NW,315,0.0,0.0,80,0.00,,,0.26,pywws,2013-03-20 02:08:00,
2013-03-19 22:13:00,30.2,24.8,29.70,NW,315,0.0,0.0,80,0.00,,,0.26,pywws,2013-03-20 02:13:00,
2013-03-19 22:19:00,30.2,24.8,29.70,East,90,0.0,3.1,80,0.00,,,0.26,pywws,2013-03-20 02:19:00,
2013-03-19 22:24:00,29.8,24.7,29.70,NW,315,0.0,0.0,81,0.00,,,0.26,pywws,2013-03-20 02:24:00,
2013-03-19 22:30:00,29.8,24.4,29.70,NW,315,0.0,0.0,80,0.00,,,0.26,pywws,2013-03-20 02:30:00,
2013-03-19 22:36:00,29.7,24.3,29.70,NW,315,0.0,0.0,80,0.00,,,0.26,pywws,2013-03-20 02:36:00,
2013-03-19 22:41:00,29.1,23.7,29.70,West,270,0.0,0.0,80,0.00,,,0.26,pywws,2013-03-20 02:41:00,
2013-03-19 22:47:00,29.3,23.9,29.70,NW,315,0.0,0.0,80,0.01,,,0.27,pywws,2013-03-20 02:47:00,
2013-03-19 22:52:00,28.9,23.6,29.70,North,0,0.0,0.0,80,0.01,,,0.27,pywws,2013-03-20 02:52:00,
2013-03-19 22:58:00,28.8,23.4,29.70,North,0,0.0,0.0,80,0.01,,,0.27,pywws,2013-03-20 02:58:00,
2013-03-19 23:04:00,28.8,23.4,29.70,NW,315,0.0,0.0,80,0.01,,,0.27,pywws,2013-03-20 03:04:00,
2013-03-19 23:09:00,28.6,23.2,29.70,North,0,0.0,0.0,80,0.01,,,0.27,pywws,2013-03-20 03:09:00,
2013-03-19 23:16:00,28.0,21.2,29.70,North,0,0.0,0.0,75,0.01,,,0.27,pywws,2013-03-20 03:16:00,
2013-03-19 23:21:00,27.7,20.8,29.70,West,270,0.0,0.0,75,0.01,,,0.27,pywws,2013-03-20 03:21:00,
2013-03-19 23:27:00,28.0,21.5,29.71,West,270,0.0,0.0,76,0.01,,,0.27,pywws,2013-03-20 03:27:00,
2013-03-19 23:34:00,27.9,21.3,29.71,West,270,0.0,0.0,76,0.01,,,0.27,pywws,2013-03-20 03:34:00,
2013-03-19 23:40:00,28.0,21.5,29.72,West,270,0.0,0.0,76,0.01,,,0.27,pywws,2013-03-20 03:40:00,
2013-03-19 23:46:00,28.4,23.0,29.71,West,270,0.0,0.0,80,0.00,,,0.27,pywws,2013-03-20 03:46:00,
2013-03-19 23:52:00,28.8,23.4,29.71,SW,225,0.0,0.0,80,0.00,,,0.27,pywws,2013-03-20 03:52:00,
2013-03-19 23:58:00,28.6,23.2,29.72,West,270,0.0,0.0,80,0.00,,,0.27,pywws,2013-03-20 03:58:00,